Time;durP1;ratioP1;P1;durP2;ratioP2;P2;SDS_P1;SDS_P2;PMS_P1;PMS_P2;Temp;Humidity;BMP_temperature;BMP_pressure;BME280_temperature;BME280_humidity;BME280_pressure;Samples;Min_cycle;Max_cycle;Signal;HPM_P1;HPM_P2
2022/06/04 00:02:03;;;;;;;6.25;3.10;;;13.40;99.90;;;;;;5004762;28;20037;-51
2022/06/04 00:04:28;;;;;;;6.15;3.05;;;13.40;99.90;;;;;;5004649;28;20135;-49
2022/06/04 00:06:55;;;;;;;4.53;2.80;;;13.40;99.90;;;;;;5007040;28;20491;-48
2022/06/04 00:09:27;;;;;;;5.45;2.75;;;13.30;99.90;;;;;;5006204;28;20037;-46
2022/06/04 00:17:22;;;;;;;5.93;2.38;;;13.20;99.90;;;;;;5005156;28;20041;-48
2022/06/04 00:19:48;;;;;;;5.43;2.80;;;13.20;99.90;;;;;;5007711;28;20117;-49
2022/06/04 00:22:15;;;;;;;5.90;3.15;;;13.20;99.90;;;;;;5003958;28;20124;-47
2022/06/04 00:24:42;;;;;;;5.82;2.50;;;13.10;99.90;;;;;;5006298;28;20099;-46
2022/06/04 00:27:17;;;;;;;4.72;2.70;;;13.10;99.90;;;;;;5008159;28;20046;-48
2022/06/04 00:29:43;;;;;;;5.68;2.72;;;13.00;99.90;;;;;;5006185;28;20038;-48
2022/06/04 00:32:10;;;;;;;5.32;2.92;;;13.00;99.90;;;;;;5006754;28;20557;-45
2022/06/04 00:34:36;;;;;;;6.35;2.85;;;12.90;99.90;;;;;;5006392;28;20038;-49
2022/06/04 00:37:01;;;;;;;7.68;3.20;;;12.90;99.90;;;;;;5008420;28;20060;-51
2022/06/04 00:39:27;;;;;;;7.70;2.45;;;12.80;99.90;;;;;;5004098;28;20038;-48
2022/06/04 00:42:09;;;;;;;8.38;2.88;;;12.80;99.90;;;;;;5002953;28;20077;-51
2022/06/04 00:44:59;;;;;;;7.43;2.73;;;12.70;99.90;;;;;;5005186;28;20041;-51
2022/06/04 00:47:27;;;;;;;6.18;2.85;;;12.70;99.90;;;;;;5007512;28;20129;-50
2022/06/04 00:49:53;;;;;;;5.55;2.25;;;12.60;99.90;;;;;;5007123;28;20034;-52
2022/06/04 00:52:21;;;;;;;5.53;2.92;;;12.60;99.90;;;;;;5003711;28;20056;-44
2022/06/04 00:54:52;;;;;;;8.30;3.13;;;12.60;99.90;;;;;;5001283;28;20556;-47
2022/06/04 00:57:32;;;;;;;9.45;3.38;;;12.60;99.90;;;;;;5003884;28;20042;-50
2022/06/04 01:00:04;;;;;;;7.07;2.70;;;12.60;99.90;;;;;;5005978;28;20136;-49
2022/06/04 01:03:08;;;;;;;4.82;2.67;;;12.50;99.90;;;;;;5008318;28;20084;-51
2022/06/04 01:06:09;;;;;;;10.25;3.50;;;12.50;99.90;;;;;;4946477;28;20067;-50
2022/06/04 01:09:11;;;;;;;6.30;2.55;;;12.50;99.90;;;;;;4951948;28;20047;-49
2022/06/04 01:12:11;;;;;;;4.82;2.63;;;12.40;99.90;;;;;;4996932;28;20046;-51
2022/06/04 01:14:46;;;;;;;8.38;2.92;;;12.40;99.90;;;;;;5006871;28;20085;-51
2022/06/04 01:17:19;;;;;;;10.13;2.80;;;12.40;99.90;;;;;;5004344;28;20104;-51
2022/06/04 01:19:54;;;;;;;9.68;3.08;;;12.40;99.90;;;;;;5006678;28;20092;-50
2022/06/04 01:22:19;;;;;;;6.25;2.75;;;12.40;99.90;;;;;;5003664;28;20125;-47
2022/06/04 01:25:02;;;;;;;3.53;2.85;;;12.40;99.90;;;;;;5006509;28;20589;-46
2022/06/04 01:27:38;;;;;;;;;;;12.40;99.90;;;;;;5001285;28;20128;-49
2022/06/04 01:30:13;;;;;;;8.30;2.97;;;12.40;99.90;;;;;;5003458;28;19917;-51
2022/06/04 01:32:50;;;;;;;5.07;3.20;;;12.30;99.90;;;;;;5002898;28;20064;-46
2022/06/04 01:35:29;;;;;;;7.45;2.80;;;12.30;99.90;;;;;;5004579;28;20048;-51
2022/06/04 01:38:22;;;;;;;9.18;3.30;;;12.30;99.90;;;;;;5003374;28;20054;-48
2022/06/04 01:41:07;;;;;;;;;;;12.20;99.90;;;;;;4981171;28;20049;-48
2022/06/04 01:43:53;;;;;;;6.43;2.75;;;12.20;99.90;;;;;;5009461;28;19917;-50
2022/06/04 01:46:39;;;;;;;6.55;2.75;;;12.20;99.90;;;;;;5006585;28;20033;-50
2022/06/04 01:49:14;;;;;;;6.03;3.08;;;12.10;99.90;;;;;;5005914;28;20053;-51
2022/06/04 01:51:40;;;;;;;7.32;2.90;;;12.10;99.90;;;;;;5005148;28;20161;-48
2022/06/04 01:54:14;;;;;;;7.97;3.33;;;12.00;99.90;;;;;;5004603;28;20046;-50
2022/06/04 01:56:46;;;;;;;8.45;3.30;;;12.10;99.90;;;;;;5000780;28;20047;-49
2022/06/04 01:59:27;;;;;;;6.47;3.05;;;12.00;99.90;;;;;;5001114;28;20125;-47
2022/06/04 02:01:59;;;;;;;9.50;3.38;;;12.00;99.90;;;;;;5005789;28;20052;-44
2022/06/04 02:04:34;;;;;;;7.38;3.17;;;12.00;99.90;;;;;;5005752;28;20049;-50
2022/06/04 02:07:32;;;;;;;9.98;3.20;;;12.00;99.90;;;;;;5004537;28;20038;-50
2022/06/04 02:10:28;;;;;;;8.32;3.20;;;12.00;99.90;;;;;;5020182;28;20073;-48
2022/06/04 02:12:58;;;;;;;8.38;3.40;;;12.00;99.90;;;;;;5006948;28;20133;-51
2022/06/04 02:15:36;;;;;;;8.00;3.13;;;12.00;99.90;;;;;;5008768;28;20049;-50
2022/06/04 02:18:04;;;;;;;7.07;3.20;;;12.00;99.90;;;;;;5008318;28;20046;-50
2022/06/04 02:20:30;;;;;;;5.95;3.00;;;11.90;99.90;;;;;;5009230;28;20100;-51
2022/06/04 02:22:56;;;;;;;11.45;3.50;;;11.90;99.90;;;;;;5010203;28;20049;-51
2022/06/04 02:25:22;;;;;;;8.55;3.67;;;11.90;99.90;;;;;;5012326;28;20407;-51
2022/06/04 02:27:50;;;;;;;8.18;3.35;;;11.90;99.90;;;;;;5007133;28;20039;-46
2022/06/04 02:30:16;;;;;;;8.15;3.20;;;11.90;99.90;;;;;;5012783;28;20045;-47
2022/06/04 02:33:07;;;;;;;11.27;3.50;;;11.90;99.90;;;;;;5006307;28;20518;-51
2022/06/04 02:35:47;;;;;;;6.18;3.15;;;11.80;99.90;;;;;;5009458;28;20097;-50
2022/06/04 02:38:41;;;;;;;6.63;3.00;;;11.80;99.90;;;;;;5008963;28;20049;-50
2022/06/04 02:41:31;;;;;;;4.55;3.28;;;11.80;99.90;;;;;;5009923;28;20088;-51
2022/06/04 02:44:18;;;;;;;7.93;3.50;;;11.80;99.90;;;;;;5007805;28;20100;-49
2022/06/04 02:47:07;;;;;;;7.18;2.92;;;11.80;99.90;;;;;;5003107;28;20124;-47
2022/06/04 02:49:46;;;;;;;8.45;3.75;;;11.80;99.90;;;;;;5011714;28;20046;-51
2022/06/04 02:52:14;;;;;;;8.98;3.80;;;11.70;99.90;;;;;;5009809;28;20071;-48
2022/06/04 02:54:50;;;;;;;8.60;3.83;;;11.70;99.90;;;;;;5009755;28;20668;-50
2022/06/04 02:57:16;;;;;;;7.15;3.80;;;11.60;99.90;;;;;;5004516;28;20144;-50
2022/06/04 02:59:44;;;;;;;11.55;3.90;;;11.60;99.90;;;;;;5008536;28;20078;-48
2022/06/04 03:02:14;;;;;;;9.93;4.38;;;11.60;99.90;;;;;;5005864;28;20065;-49
2022/06/04 03:04:49;;;;;;;8.32;3.97;;;11.60;99.90;;;;;;4998987;28;20088;-48
2022/06/04 03:07:16;;;;;;;11.38;4.75;;;11.60;99.90;;;;;;5008012;28;20063;-50
2022/06/04 03:09:44;;;;;;;8.52;4.40;;;11.60;99.90;;;;;;5011936;28;20042;-48
2022/06/04 03:12:12;;;;;;;12.55;5.35;;;11.50;99.90;;;;;;5006406;28;20050;-49
2022/06/04 03:14:37;;;;;;;8.10;4.13;;;11.50;99.90;;;;;;5010780;28;20483;-52
2022/06/04 03:17:07;;;;;;;9.75;4.60;;;11.50;99.90;;;;;;5008307;28;20072;-50
2022/06/04 03:19:33;;;;;;;9.15;4.28;;;11.40;99.90;;;;;;5009936;28;20088;-51
2022/06/04 03:22:00;;;;;;;9.48;4.90;;;11.40;99.90;;;;;;5006791;28;20510;-49
2022/06/04 03:24:26;;;;;;;15.35;5.25;;;11.40;99.90;;;;;;5010727;28;20077;-48
2022/06/04 03:26:52;;;;;;;8.63;5.15;;;11.40;99.90;;;;;;5002872;28;20041;-48
2022/06/04 03:29:18;;;;;;;14.30;4.88;;;11.30;99.90;;;;;;5007962;28;20271;-46
2022/06/04 03:31:44;;;;;;;9.30;4.45;;;11.30;99.90;;;;;;5009539;28;20128;-49
2022/06/04 03:34:10;;;;;;;9.40;4.78;;;11.30;99.90;;;;;;4999493;28;20456;-48
2022/06/04 03:36:37;;;;;;;8.18;4.82;;;11.30;99.90;;;;;;5008118;28;20577;-52
2022/06/04 03:39:04;;;;;;;7.90;4.25;;;11.30;99.90;;;;;;5005499;28;20121;-50
2022/06/04 03:41:29;;;;;;;8.57;4.60;;;11.30;99.90;;;;;;5010197;28;20061;-51
2022/06/04 03:43:55;;;;;;;9.10;4.63;;;11.40;99.90;;;;;;5002822;28;20037;-51
2022/06/04 03:46:24;;;;;;;11.43;4.60;;;11.30;99.90;;;;;;5007495;28;20432;-44
2022/06/04 03:48:51;;;;;;;9.18;4.78;;;11.30;99.90;;;;;;5007125;28;20050;-50
2022/06/04 03:51:17;;;;;;;9.52;4.18;;;11.30;99.90;;;;;;5008955;28;20077;-51
2022/06/04 03:53:43;;;;;;;10.88;4.93;;;11.30;99.90;;;;;;5007094;28;20042;-50
2022/06/04 03:56:09;;;;;;;9.85;4.78;;;11.40;99.90;;;;;;5010490;28;20127;-51
2022/06/04 03:58:35;;;;;;;9.32;4.28;;;11.30;99.90;;;;;;5002143;28;20117;-48
2022/06/04 04:01:11;;;;;;;11.00;4.75;;;11.40;99.90;;;;;;4999009;28;20038;-48
2022/06/04 04:03:36;;;;;;;9.43;4.72;;;11.30;99.90;;;;;;5009120;28;20046;-49
2022/06/04 04:06:02;;;;;;;8.90;4.45;;;11.30;99.90;;;;;;5009824;28;20072;-45
2022/06/04 04:08:27;;;;;;;10.30;4.70;;;11.30;99.90;;;;;;5003013;28;20436;-51
2022/06/04 04:10:53;;;;;;;9.93;4.13;;;11.30;99.90;;;;;;5008588;28;20140;-46
2022/06/04 04:13:19;;;;;;;7.55;3.83;;;11.40;99.90;;;;;;5004638;28;20046;-50
2022/06/04 04:15:46;;;;;;;11.20;4.30;;;11.40;99.90;;;;;;5008639;28;20038;-50
2022/06/04 04:18:12;;;;;;;10.05;4.22;;;11.40;99.90;;;;;;5001617;28;20049;-48
2022/06/04 04:20:41;;;;;;;10.50;4.47;;;11.40;99.90;;;;;;5009996;28;20034;-52
2022/06/04 04:23:08;;;;;;;8.73;4.22;;;11.40;99.90;;;;;;5005747;28;20063;-50
2022/06/04 04:25:35;;;;;;;7.95;3.85;;;11.40;99.90;;;;;;5007766;28;20041;-48
2022/06/04 04:28:01;;;;;;;7.22;3.67;;;11.50;99.90;;;;;;4997640;28;20579;-50
2022/06/04 04:30:30;;;;;;;9.93;3.80;;;11.50;99.90;;;;;;5002961;28;20510;-55
2022/06/04 04:32:57;;;;;;;11.10;3.85;;;11.50;99.90;;;;;;5005932;28;20686;-47
2022/06/04 04:35:26;;;;;;;7.57;3.88;;;11.60;99.90;;;;;;5008158;28;20127;-48
2022/06/04 04:37:53;;;;;;;7.93;3.70;;;11.60;99.90;;;;;;5004955;28;20050;-50
2022/06/04 04:40:21;;;;;;;9.80;4.10;;;11.70;99.90;;;;;;4996509;28;20038;-46
2022/06/04 04:42:49;;;;;;;7.13;3.65;;;11.70;99.90;;;;;;5006500;28;20041;-51
2022/06/04 04:45:17;;;;;;;12.32;3.80;;;11.80;99.90;;;;;;5002156;28;20129;-50
2022/06/04 04:47:44;;;;;;;8.02;3.38;;;11.80;99.90;;;;;;5005434;28;20136;-50
2022/06/04 04:50:17;;;;;;;6.90;3.22;;;11.90;99.90;;;;;;5009769;28;20045;-52
2022/06/04 04:52:43;;;;;;;9.35;3.13;;;11.90;99.90;;;;;;5008273;28;20038;-51
2022/06/04 04:55:09;;;;;;;8.95;3.63;;;11.90;99.90;;;;;;5006447;28;20049;-48
2022/06/04 04:57:35;;;;;;;9.82;3.20;;;11.90;99.90;;;;;;5008213;28;20052;-50
2022/06/04 05:00:00;;;;;;;6.32;2.70;;;11.90;99.90;;;;;;5002381;28;20072;-50
2022/06/04 05:02:26;;;;;;;7.60;4.20;;;12.00;99.90;;;;;;5003313;28;20499;-46
2022/06/04 05:04:52;;;;;;;6.10;3.10;;;12.00;99.90;;;;;;5009242;28;20057;-50
2022/06/04 05:07:18;;;;;;;5.93;2.90;;;12.10;99.90;;;;;;5003731;28;20048;-51
2022/06/04 05:09:43;;;;;;;8.73;3.30;;;12.20;99.90;;;;;;5006042;28;20455;-50
2022/06/04 05:12:10;;;;;;;4.70;2.92;;;12.30;99.90;;;;;;5002948;28;20054;-51
2022/06/04 05:14:37;;;;;;;8.45;2.92;;;12.40;99.90;;;;;;5002476;28;20038;-50
2022/06/04 05:17:04;;;;;;;5.88;2.40;;;12.50;99.90;;;;;;4999963;28;20046;-49
2022/06/04 05:19:30;;;;;;;6.82;2.88;;;12.60;99.90;;;;;;5006977;28;20080;-50
2022/06/04 05:21:56;;;;;;;6.97;3.08;;;12.70;99.90;;;;;;5009186;28;20506;-46
2022/06/04 05:24:31;;;;;;;6.40;2.92;;;12.70;99.90;;;;;;5002976;28;20065;-49
2022/06/04 05:26:57;;;;;;;4.93;2.60;;;12.70;99.90;;;;;;5005997;28;20069;-48
2022/06/04 05:29:24;;;;;;;8.05;3.47;;;12.70;99.90;;;;;;4999342;28;20091;-42
2022/06/04 05:31:52;;;;;;;4.95;2.25;;;12.80;99.90;;;;;;5004379;28;20167;-51
2022/06/04 05:34:18;;;;;;;5.32;2.63;;;12.80;99.90;;;;;;5006299;28;20042;-49
2022/06/04 05:36:45;;;;;;;4.93;2.45;;;12.80;99.90;;;;;;5004324;28;20141;-50
2022/06/04 05:39:12;;;;;;;8.60;2.75;;;12.90;99.90;;;;;;5003697;28;20129;-48
2022/06/04 05:41:39;;;;;;;8.43;2.90;;;12.90;99.90;;;;;;5009506;28;20529;-49
2022/06/04 05:44:05;;;;;;;4.63;2.45;;;13.10;99.90;;;;;;5007763;28;20113;-51
2022/06/04 05:46:31;;;;;;;8.40;2.40;;;13.10;99.90;;;;;;5008450;28;20034;-51
2022/06/04 05:48:59;;;;;;;5.75;2.53;;;13.20;99.90;;;;;;5009817;28;20110;-48
2022/06/04 05:51:27;;;;;;;4.75;2.30;;;13.30;99.90;;;;;;5009032;28;20049;-51
2022/06/04 05:53:54;;;;;;;7.40;2.33;;;13.40;99.90;;;;;;5009070;28;20041;-51
2022/06/04 05:56:25;;;;;;;6.57;2.40;;;13.50;99.90;;;;;;5006252;28;20095;-51
2022/06/04 05:58:54;;;;;;;6.28;2.75;;;13.50;99.90;;;;;;5007438;28;20074;-50
2022/06/04 06:01:22;;;;;;;4.43;2.20;;;13.60;99.90;;;;;;5005612;28;20479;-50
2022/06/04 06:03:49;;;;;;;6.97;2.78;;;13.50;99.90;;;;;;5008730;28;20798;-50
2022/06/04 06:06:17;;;;;;;6.15;2.40;;;13.50;99.90;;;;;;5009767;28;20034;-48
2022/06/04 06:08:43;;;;;;;5.35;1.83;;;13.50;99.90;;;;;;5009096;28;20065;-53
2022/06/04 06:11:11;;;;;;;4.90;2.00;;;13.60;99.90;;;;;;5008052;28;20125;-51
2022/06/04 06:13:38;;;;;;;4.88;2.10;;;13.70;99.90;;;;;;5006860;28;20435;-48
2022/06/04 06:16:06;;;;;;;5.70;2.20;;;13.70;99.90;;;;;;5006324;28;20046;-51
2022/06/04 06:18:32;;;;;;;6.07;2.33;;;13.80;99.90;;;;;;5005591;28;20119;-51
2022/06/04 06:20:58;;;;;;;6.10;2.22;;;13.90;99.90;;;;;;5009102;28;20045;-51
2022/06/04 06:23:25;;;;;;;4.00;2.33;;;13.90;99.90;;;;;;5010459;28;20507;-48
2022/06/04 06:25:50;;;;;;;5.40;2.53;;;14.00;99.90;;;;;;5010973;28;20121;-49
2022/06/04 06:28:16;;;;;;;4.15;2.25;;;14.00;99.90;;;;;;5008233;28;20137;-50
2022/06/04 06:30:42;;;;;;;5.20;1.80;;;14.00;99.90;;;;;;5009388;28;20495;-47
2022/06/04 06:33:08;;;;;;;3.30;1.80;;;14.10;99.90;;;;;;5007063;28;20038;-45
2022/06/04 06:35:34;;;;;;;4.10;2.00;;;14.20;99.90;;;;;;5008572;28;20137;-52
2022/06/04 06:38:00;;;;;;;4.57;2.53;;;14.40;99.90;;;;;;5006998;28;20038;-52
2022/06/04 06:40:25;;;;;;;4.22;1.85;;;14.40;99.90;;;;;;5007172;28;20045;-49
2022/06/04 06:42:51;;;;;;;5.40;1.75;;;14.50;99.90;;;;;;5011117;28;20458;-51
2022/06/04 06:45:17;;;;;;;5.53;2.10;;;14.50;99.90;;;;;;5010049;28;20042;-47
2022/06/04 06:47:44;;;;;;;4.20;1.92;;;14.60;99.90;;;;;;5010231;28;20041;-52
2022/06/04 06:50:12;;;;;;;3.92;1.70;;;14.70;99.90;;;;;;5009348;28;20042;-52
2022/06/04 06:52:38;;;;;;;4.70;2.10;;;14.80;99.90;;;;;;5010535;28;20069;-52
2022/06/04 06:55:04;;;;;;;4.18;1.90;;;14.90;99.90;;;;;;5009508;28;20483;-45
2022/06/04 06:57:29;;;;;;;3.65;1.50;;;14.90;99.90;;;;;;5005694;28;20479;-49
2022/06/04 06:59:56;;;;;;;3.85;1.77;;;15.00;99.90;;;;;;5007765;28;20133;-52
2022/06/04 07:02:22;;;;;;;3.83;2.10;;;15.00;99.90;;;;;;5004775;28;20048;-47
2022/06/04 07:04:48;;;;;;;6.53;1.95;;;15.00;99.90;;;;;;5002695;28;20103;-50
2022/06/04 07:07:13;;;;;;;3.92;1.80;;;15.10;99.90;;;;;;5006208;28;20281;-50
2022/06/04 07:09:41;;;;;;;3.63;1.50;;;15.10;99.90;;;;;;5006341;28;20053;-46
2022/06/04 07:12:08;;;;;;;3.88;1.90;;;15.30;99.90;;;;;;5004378;28;20666;-50
2022/06/04 07:14:34;;;;;;;3.17;1.92;;;15.40;99.90;;;;;;5003631;28;20520;-47
2022/06/04 07:17:03;;;;;;;4.30;2.08;;;15.50;99.90;;;;;;5007526;28;20562;-52
2022/06/04 07:19:29;;;;;;;5.00;1.88;;;15.50;99.50;;;;;;5007212;28;20061;-50
2022/06/04 07:21:56;;;;;;;4.90;1.90;;;15.60;99.50;;;;;;5004944;28;20030;-49
2022/06/04 07:24:22;;;;;;;4.00;1.75;;;15.70;99.20;;;;;;5007983;28;20093;-51
2022/06/04 07:26:48;;;;;;;3.95;1.73;;;15.80;98.70;;;;;;5010036;28;20139;-49
2022/06/04 07:29:14;;;;;;;4.85;2.03;;;15.80;98.40;;;;;;5009529;28;20069;-50
2022/06/04 07:31:40;;;;;;;4.93;2.28;;;15.90;98.20;;;;;;5008305;28;20042;-51
2022/06/04 07:34:06;;;;;;;5.63;1.95;;;16.00;98.10;;;;;;5004949;28;20038;-47
2022/06/04 07:36:38;;;;;;;5.10;2.00;;;16.10;98.30;;;;;;5003404;28;20427;-52
2022/06/04 07:39:05;;;;;;;6.10;1.95;;;16.20;98.30;;;;;;5003007;28;20038;-52
2022/06/04 07:41:38;;;;;;;3.63;2.20;;;16.40;97.70;;;;;;5010322;28;20053;-52
2022/06/04 07:44:05;;;;;;;;;;;16.50;97.00;;;;;;5009258;28;20044;-52
2022/06/04 07:46:31;;;;;;;5.35;2.15;;;16.60;97.00;;;;;;4999250;28;20004;-51
2022/06/04 07:49:00;;;;;;;6.18;2.40;;;16.70;96.60;;;;;;5006545;28;20049;-51
2022/06/04 07:51:26;;;;;;;3.78;1.88;;;16.90;95.60;;;;;;5003809;28;20052;-50
2022/06/04 07:53:52;;;;;;;2.72;1.52;;;17.00;95.30;;;;;;5009270;28;20042;-51
2022/06/04 07:56:19;;;;;;;3.88;1.98;;;17.10;94.60;;;;;;5011158;28;20045;-47
2022/06/04 07:58:46;;;;;;;4.88;2.03;;;17.30;94.20;;;;;;5006283;28;20521;-52
2022/06/04 08:01:14;;;;;;;4.22;1.70;;;17.50;93.30;;;;;;5004082;28;20053;-48
2022/06/04 08:03:41;;;;;;;4.03;1.88;;;17.70;92.90;;;;;;4999977;28;20447;-46
2022/06/04 08:06:07;;;;;;;4.43;1.83;;;17.80;91.80;;;;;;5018983;28;20455;-50
2022/06/04 08:08:34;;;;;;;3.97;2.00;;;17.70;91.40;;;;;;5003981;28;20092;-47
2022/06/04 08:11:01;;;;;;;4.18;1.90;;;17.70;90.70;;;;;;5007790;28;20038;-51
2022/06/04 08:13:30;;;;;;;6.00;1.90;;;17.50;90.00;;;;;;5007090;28;20072;-51
2022/06/04 08:15:58;;;;;;;4.40;1.70;;;17.40;90.10;;;;;;5003391;28;20045;-44
2022/06/04 08:18:25;;;;;;;4.40;1.80;;;17.40;90.30;;;;;;5002166;28;20041;-51
2022/06/04 08:20:52;;;;;;;4.55;2.20;;;17.50;90.60;;;;;;5004600;28;20038;-50
2022/06/04 08:23:19;;;;;;;4.35;2.10;;;17.50;90.20;;;;;;5008095;28;20046;-51
2022/06/04 08:25:49;;;;;;;2.90;1.60;;;17.60;89.70;;;;;;5007503;28;20041;-50
2022/06/04 08:28:15;;;;;;;4.32;1.75;;;17.70;89.20;;;;;;5007595;28;20137;-47
2022/06/04 08:30:42;;;;;;;4.97;2.05;;;17.80;88.40;;;;;;5004840;28;20124;-50
2022/06/04 08:33:08;;;;;;;3.67;1.60;;;17.80;86.80;;;;;;5002159;28;20072;-46
2022/06/04 08:35:34;;;;;;;4.35;2.40;;;17.80;86.30;;;;;;5003698;28;20042;-45
2022/06/04 08:38:00;;;;;;;4.07;1.60;;;17.80;84.90;;;;;;4995333;28;20128;-50
2022/06/04 08:40:38;;;;;;;4.35;2.08;;;17.80;85.90;;;;;;4993982;28;20488;-46
2022/06/04 08:43:12;;;;;;;3.60;1.88;;;17.80;84.60;;;;;;5010787;28;20038;-51
2022/06/04 08:45:39;;;;;;;5.00;2.00;;;17.90;84.90;;;;;;5005562;28;20498;-49
2022/06/04 08:48:25;;;;;;;3.67;2.25;;;18.00;84.70;;;;;;5009805;28;20155;-47
2022/06/04 08:50:54;;;;;;;3.50;2.03;;;17.90;83.90;;;;;;5004129;28;20049;-52
2022/06/04 08:53:24;;;;;;;4.53;2.60;;;17.80;83.10;;;;;;5005371;28;20068;-51
2022/06/04 08:59:15;;;;;;;4.10;2.08;;;17.80;83.80;;;;;;5007119;28;20058;-51
2022/06/04 09:01:45;;;;;;;6.38;2.67;;;17.90;85.60;;;;;;5007547;28;20084;-51
2022/06/04 09:04:14;;;;;;;4.30;2.28;;;18.00;84.90;;;;;;5005544;28;20398;-48
2022/06/04 09:06:41;;;;;;;6.63;2.30;;;18.20;83.90;;;;;;5006763;28;20046;-52
2022/06/04 09:09:19;;;;;;;5.25;2.50;;;18.40;83.70;;;;;;5007102;28;20045;-51
2022/06/04 09:12:03;;;;;;;3.50;1.92;;;18.70;81.40;;;;;;5003206;28;20061;-51
2022/06/04 09:14:31;;;;;;;3.72;2.17;;;19.00;82.90;;;;;;4997314;28;20553;-46
2022/06/04 09:17:06;;;;;;;3.72;1.80;;;19.30;80.20;;;;;;5005726;28;20049;-43
2022/06/04 09:19:38;;;;;;;4.82;1.88;;;19.60;77.30;;;;;;5007152;28;20046;-47
2022/06/04 09:22:33;;;;;;;3.00;1.92;;;19.60;75.60;;;;;;5003464;28;20429;-51
2022/06/04 09:24:59;;;;;;;5.70;2.08;;;19.60;73.80;;;;;;4998706;28;20057;-47
2022/06/04 09:27:39;;;;;;;4.13;2.22;;;19.60;74.00;;;;;;5006892;28;20025;-52
2022/06/04 09:30:27;;;;;;;5.30;2.25;;;19.70;74.10;;;;;;5003204;28;20120;-51
2022/06/04 09:33:08;;;;;;;4.40;1.85;;;19.80;74.40;;;;;;5004213;28;20045;-52
2022/06/04 09:35:38;;;;;;;4.18;2.08;;;20.00;74.00;;;;;;5007142;28;20034;-46
2022/06/04 09:38:04;;;;;;;3.33;2.10;;;20.20;72.50;;;;;;5001824;28;20054;-47
2022/06/04 09:40:34;;;;;;;4.18;2.03;;;20.30;72.10;;;;;;5005477;28;20033;-51
2022/06/04 09:43:06;;;;;;;6.25;1.83;;;20.50;69.90;;;;;;4998122;28;20066;-46
2022/06/04 09:45:31;;;;;;;3.72;1.95;;;20.70;69.20;;;;;;5008203;28;20038;-52
2022/06/04 09:47:58;;;;;;;2.85;1.95;;;20.70;69.10;;;;;;4999526;28;20100;-48
2022/06/04 09:50:30;;;;;;;5.38;2.03;;;20.80;68.30;;;;;;5006228;28;20124;-47
2022/06/04 09:53:24;;;;;;;5.18;2.38;;;20.80;67.80;;;;;;5008095;28;20058;-42
2022/06/04 09:55:57;;;;;;;4.18;2.63;;;20.90;66.90;;;;;;5001736;28;20092;-51
2022/06/04 09:58:28;;;;;;;4.03;2.45;;;20.80;66.40;;;;;;5006110;28;20037;-50
2022/06/04 10:01:03;;;;;;;3.22;1.80;;;20.90;67.40;;;;;;5005015;28;20080;-45
2022/06/04 10:03:31;;;;;;;3.08;1.75;;;21.10;66.90;;;;;;5004690;28;20191;-44
2022/06/04 10:06:05;;;;;;;3.92;2.50;;;21.30;65.60;;;;;;5003526;28;20038;-51
2022/06/04 10:09:55;;;;;;;4.30;2.60;;;21.50;64.20;;;;;;5004999;28;20093;-49
2022/06/04 10:11:21;;;;;;;4.95;2.28;;;21.60;63.70;;;;;;5004203;28;20081;-46
2022/06/04 10:13:49;;;;;;;2.72;1.88;;;21.80;63.00;;;;;;5000115;28;20057;-49
2022/06/04 10:16:19;;;;;;;4.00;1.75;;;21.90;63.10;;;;;;5020126;28;20048;-47
2022/06/04 10:19:13;;;;;;;3.45;2.00;;;22.00;61.40;;;;;;5005509;28;20381;-49
2022/06/04 10:21:41;;;;;;;3.63;2.20;;;22.10;58.20;;;;;;5000969;28;20127;-51
2022/06/04 10:24:28;;;;;;;5.57;2.60;;;22.00;60.20;;;;;;5001331;28;20069;-50
2022/06/04 10:27:22;;;;;;;5.35;2.40;;;22.00;58.70;;;;;;5000684;28;20061;-48
2022/06/04 10:30:18;;;;;;;5.97;2.03;;;22.00;59.70;;;;;;4986526;28;20046;-51
2022/06/04 10:32:54;;;;;;;3.20;2.13;;;22.00;60.20;;;;;;5005579;28;20064;-52
2022/06/04 10:35:34;;;;;;;6.35;2.20;;;22.20;60.30;;;;;;5002274;28;20040;-45
2022/06/04 10:38:23;;;;;;;5.60;2.35;;;22.40;59.80;;;;;;5006453;28;20152;-51
2022/06/04 10:41:08;;;;;;;4.28;2.20;;;22.40;57.90;;;;;;5004852;28;20128;-44
2022/06/04 10:43:40;;;;;;;5.63;2.60;;;22.60;56.70;;;;;;5006385;28;20037;-46
2022/06/04 10:46:30;;;;;;;4.25;2.38;;;22.80;57.80;;;;;;5003369;28;20153;-51
2022/06/04 10:49:20;;;;;;;4.43;2.50;;;22.80;57.30;;;;;;5005717;28;20040;-51
2022/06/04 10:52:11;;;;;;;4.45;2.83;;;23.00;55.70;;;;;;5010614;28;20076;-51
2022/06/04 10:54:55;;;;;;;5.88;2.25;;;23.00;55.70;;;;;;5008541;28;20060;-51
2022/06/04 10:57:20;;;;;;;5.72;2.90;;;23.10;56.30;;;;;;5008125;28;20038;-52
2022/06/04 10:59:55;;;;;;;4.60;2.63;;;22.80;56.10;;;;;;5007777;28;20100;-49
2022/06/04 11:02:26;;;;;;;4.18;2.75;;;22.80;57.30;;;;;;5010591;28;20495;-51
2022/06/04 11:04:59;;;;;;;5.78;3.00;;;22.80;56.10;;;;;;5006128;28;20052;-51
2022/06/04 11:07:39;;;;;;;4.85;2.50;;;22.70;56.50;;;;;;5012031;28;20117;-48
2022/06/04 11:10:12;;;;;;;4.40;2.70;;;22.70;56.20;;;;;;5009037;28;20503;-48
2022/06/04 11:13:04;;;;;;;5.45;2.60;;;22.70;56.20;;;;;;5007127;28;20065;-51
2022/06/04 11:15:44;;;;;;;8.27;2.38;;;22.60;55.40;;;;;;5009141;28;20092;-47
2022/06/04 11:18:18;;;;;;;5.57;2.20;;;22.50;56.20;;;;;;5007438;28;20046;-50
2022/06/04 11:20:54;;;;;;;4.38;2.42;;;22.70;57.00;;;;;;5006676;28;20045;-46
2022/06/04 11:23:29;;;;;;;5.80;2.28;;;22.80;56.70;;;;;;5009322;28;20041;-48
2022/06/04 11:26:04;;;;;;;3.15;2.00;;;23.00;55.10;;;;;;5004193;28;20042;-47
2022/06/04 11:28:32;;;;;;;3.60;2.30;;;22.90;54.70;;;;;;5024336;28;20084;-50
2022/06/04 11:31:22;;;;;;;3.20;2.10;;;23.00;56.00;;;;;;5015653;28;20050;-50
2022/06/04 11:34:12;;;;;;;4.75;2.47;;;23.00;55.10;;;;;;5007491;28;20049;-51
2022/06/04 11:36:46;;;;;;;4.03;2.22;;;23.00;55.50;;;;;;4998992;28;20037;-50
2022/06/04 11:39:30;;;;;;;5.28;1.83;;;23.00;54.70;;;;;;5000022;28;20034;-50
2022/06/04 11:42:05;;;;;;;5.53;2.00;;;22.90;54.20;;;;;;5001120;28;20045;-51
2022/06/04 11:44:53;;;;;;;4.30;1.65;;;23.20;56.60;;;;;;5005959;28;20034;-52
2022/06/04 11:47:59;;;;;;;3.05;1.80;;;23.60;55.60;;;;;;5004203;28;20046;-45
2022/06/04 11:50:34;;;;;;;3.03;1.70;;;23.90;53.90;;;;;;5006214;28;20045;-47
2022/06/04 11:53:06;;;;;;;5.30;1.92;;;24.20;53.50;;;;;;5004623;28;20081;-44
2022/06/04 11:55:40;;;;;;;4.38;1.65;;;24.40;51.60;;;;;;5009440;28;20057;-51
2022/06/04 11:58:08;;;;;;;5.22;2.03;;;24.50;51.80;;;;;;5003679;28;20050;-48
2022/06/04 12:00:37;;;;;;;3.20;1.77;;;24.80;50.70;;;;;;5006451;28;20045;-50
2022/06/04 12:03:37;;;;;;;3.97;1.98;;;24.90;49.70;;;;;;5008147;28;20037;-50
2022/06/04 12:06:03;;;;;;;3.42;1.77;;;25.00;48.60;;;;;;5005296;28;20038;-48
2022/06/04 12:08:36;;;;;;;3.22;1.90;;;24.80;48.40;;;;;;5002791;28;20463;-47
2022/06/04 12:11:40;;;;;;;2.85;1.88;;;24.80;48.40;;;;;;5004788;28;20030;-48
2022/06/04 12:14:18;;;;;;;2.58;1.63;;;24.80;48.60;;;;;;4940503;28;20044;-51
2022/06/04 12:16:51;;;;;;;2.42;1.35;;;24.90;48.40;;;;;;4996668;28;20404;-51
2022/06/04 12:25:16;;;;;;;4.95;1.73;;;24.40;48.20;;;;;;5004217;28;20102;-50
2022/06/04 12:27:57;;;;;;;2.88;1.33;;;24.10;48.30;;;;;;5004022;28;20128;-54
2022/06/04 12:30:37;;;;;;;3.60;1.73;;;24.10;48.90;;;;;;5004871;28;20541;-52
2022/06/04 12:33:18;;;;;;;3.65;1.63;;;24.20;48.40;;;;;;5000310;28;20041;-50
2022/06/04 12:35:57;;;;;;;4.63;1.35;;;24.20;48.30;;;;;;5005863;28;20080;-48
2022/06/04 12:38:25;;;;;;;2.30;1.40;;;24.30;48.20;;;;;;4997465;28;20482;-50
2022/06/04 12:40:51;;;;;;;2.42;1.50;;;24.40;48.50;;;;;;5002367;28;20495;-50
2022/06/04 12:43:31;;;;;;;2.58;1.42;;;24.40;47.80;;;;;;5005425;28;20034;-49
2022/06/04 12:46:12;;;;;;;4.80;1.70;;;24.40;48.20;;;;;;5003509;28;20041;-47
2022/06/04 12:48:44;;;;;;;2.88;1.30;;;24.50;48.10;;;;;;5015281;28;20125;-49
2022/06/04 12:51:25;;;;;;;3.30;1.58;;;24.50;48.20;;;;;;5003980;28;20053;-45
2022/06/04 12:54:23;;;;;;;7.30;1.60;;;24.50;47.70;;;;;;5002248;28;20518;-48
2022/06/04 12:57:11;;;;;;;3.58;1.60;;;24.40;47.40;;;;;;5004014;28;20060;-47
2022/06/04 12:59:49;;;;;;;3.25;1.40;;;24.40;46.50;;;;;;5004820;28;20042;-50
2022/06/04 13:02:58;;;;;;;3.55;1.35;;;24.30;47.60;;;;;;5001474;28;20499;-49
2022/06/04 13:05:27;;;;;;;3.63;1.70;;;24.50;47.80;;;;;;4994446;28;20120;-50
2022/06/04 13:08:05;;;;;;;3.55;1.70;;;24.60;47.60;;;;;;5001515;28;20041;-57
2022/06/04 13:10:43;;;;;;;2.55;1.60;;;24.70;47.30;;;;;;5000870;28;20821;-47
2022/06/04 13:13:45;;;;;;;3.88;1.67;;;24.80;46.90;;;;;;5005510;28;20064;-47
2022/06/04 13:16:24;;;;;;;2.38;1.60;;;24.80;46.50;;;;;;4976688;28;20053;-48
2022/06/04 13:19:08;;;;;;;3.90;1.70;;;24.80;46.60;;;;;;5007541;28;20489;-48
2022/06/04 13:21:39;;;;;;;3.60;1.42;;;25.00;47.40;;;;;;5005926;28;20042;-48
2022/06/04 13:24:12;;;;;;;6.25;1.67;;;25.30;46.60;;;;;;5007840;28;20121;-50
2022/06/04 13:26:47;;;;;;;2.67;1.40;;;25.60;45.90;;;;;;5002204;28;20510;-45
2022/06/04 13:29:24;;;;;;;5.90;1.48;;;25.90;45.30;;;;;;5008740;28;20125;-49
2022/06/04 13:31:53;;;;;;;2.45;1.50;;;26.30;45.20;;;;;;4998808;28;20455;-49